sensor_id;sensor_type;location;lat;lon;timestamp;temperature;humidity
32749;DHT22;19119;52.474;13.710;2023-12-04T00:00:59;-3.50;99.90
32749;DHT22;19119;52.474;13.710;2023-12-04T00:03:24;-3.60;99.90
32749;DHT22;19119;52.474;13.710;2023-12-04T00:05:49;-3.70;99.90
32749;DHT22;19119;52.474;13.710;2023-12-04T00:08:15;-3.70;99.90
32749;DHT22;19119;52.474;13.710;2023-12-04T00:10:40;-3.70;99.90
32749;DHT22;19119;52.474;13.710;2023-12-04T00:13:06;-3.70;99.90
32749;DHT22;19119;52.474;13.710;2023-12-04T00:15:31;-3.70;99.90
32749;DHT22;19119;52.474;13.710;2023-12-04T00:17:57;-3.80;99.90
32749;DHT22;19119;52.474;13.710;2023-12-04T00:20:22;-3.80;99.90
32749;DHT22;19119;52.474;13.710;2023-12-04T00:22:47;-4.00;99.90
32749;DHT22;19119;52.474;13.710;2023-12-04T00:25:13;-3.90;99.90
32749;DHT22;19119;52.474;13.710;2023-12-04T00:27:38;-4.00;99.90
32749;DHT22;19119;52.474;13.710;2023-12-04T00:30:04;-4.00;99.90
32749;DHT22;19119;52.474;13.710;2023-12-04T00:32:30;-4.10;99.90
32749;DHT22;19119;52.474;13.710;2023-12-04T00:34:55;-4.20;99.90
32749;DHT22;19119;52.474;13.710;2023-12-04T00:37:21;-4.30;99.90
32749;DHT22;19119;52.474;13.710;2023-12-04T00:39:46;-4.30;99.90
32749;DHT22;19119;52.474;13.710;2023-12-04T00:42:11;-4.30;99.90
32749;DHT22;19119;52.474;13.710;2023-12-04T00:44:37;-4.30;99.90
32749;DHT22;19119;52.474;13.710;2023-12-04T00:47:02;-4.40;99.90
32749;DHT22;19119;52.474;13.710;2023-12-04T00:49:28;-4.40;99.90
32749;DHT22;19119;52.474;13.710;2023-12-04T00:51:53;-4.50;99.90
32749;DHT22;19119;52.474;13.710;2023-12-04T00:54:19;-4.50;99.90
32749;DHT22;19119;52.474;13.710;2023-12-04T00:56:44;-4.50;99.90
32749;DHT22;19119;52.474;13.710;2023-12-04T00:59:09;-4.60;99.90
32749;DHT22;19119;52.474;13.710;2023-12-04T01:01:35;-4.60;99.90
32749;DHT22;19119;52.474;13.710;2023-12-04T01:04:01;-4.70;99.90
32749;DHT22;19119;52.474;13.710;2023-12-04T01:06:26;-4.70;99.90
32749;DHT22;19119;52.474;13.710;2023-12-04T01:08:53;-4.70;99.90
32749;DHT22;19119;52.474;13.710;2023-12-04T01:11:19;-4.80;99.90
32749;DHT22;19119;52.474;13.710;2023-12-04T01:13:44;-4.80;99.90
32749;DHT22;19119;52.474;13.710;2023-12-04T01:16:10;-4.90;99.90
32749;DHT22;19119;52.474;13.710;2023-12-04T01:18:35;-4.80;99.90
32749;DHT22;19119;52.474;13.710;2023-12-04T01:21:01;-4.90;99.90
32749;DHT22;19119;52.474;13.710;2023-12-04T01:23:27;-4.80;99.90
32749;DHT22;19119;52.474;13.710;2023-12-04T01:25:53;-4.90;99.90
32749;DHT22;19119;52.474;13.710;2023-12-04T01:28:18;-4.90;99.90
32749;DHT22;19119;52.474;13.710;2023-12-04T01:30:44;-4.90;99.90
32749;DHT22;19119;52.474;13.710;2023-12-04T01:33:09;-4.90;99.90
32749;DHT22;19119;52.474;13.710;2023-12-04T01:35:35;-5.00;99.90
32749;DHT22;19119;52.474;13.710;2023-12-04T01:38:01;-4.90;99.90
32749;DHT22;19119;52.474;13.710;2023-12-04T01:40:26;-4.90;99.90
32749;DHT22;19119;52.474;13.710;2023-12-04T01:42:52;-4.90;99.90
32749;DHT22;19119;52.474;13.710;2023-12-04T01:45:17;-5.00;99.90
32749;DHT22;19119;52.474;13.710;2023-12-04T01:47:43;-5.00;99.90
32749;DHT22;19119;52.474;13.710;2023-12-04T01:50:08;-5.10;99.90
32749;DHT22;19119;52.474;13.710;2023-12-04T01:52:34;-5.10;99.90
32749;DHT22;19119;52.474;13.710;2023-12-04T01:55:00;-5.00;99.90
32749;DHT22;19119;52.474;13.710;2023-12-04T01:57:25;-5.00;99.90
32749;DHT22;19119;52.474;13.710;2023-12-04T01:59:51;-5.10;99.90
32749;DHT22;19119;52.474;13.710;2023-12-04T02:02:17;-5.10;99.90
32749;DHT22;19119;52.474;13.710;2023-12-04T02:04:42;-5.10;99.90
32749;DHT22;19119;52.474;13.710;2023-12-04T02:07:08;-5.10;99.90
32749;DHT22;19119;52.474;13.710;2023-12-04T02:09:34;-5.00;99.90
32749;DHT22;19119;52.474;13.710;2023-12-04T02:12:00;-5.10;99.90
32749;DHT22;19119;52.474;13.710;2023-12-04T02:14:25;-5.10;99.90
32749;DHT22;19119;52.474;13.710;2023-12-04T02:16:51;-5.20;99.90
32749;DHT22;19119;52.474;13.710;2023-12-04T02:19:17;-5.20;99.90
32749;DHT22;19119;52.474;13.710;2023-12-04T02:21:42;-5.10;99.90
32749;DHT22;19119;52.474;13.710;2023-12-04T02:24:08;-5.10;99.90
32749;DHT22;19119;52.474;13.710;2023-12-04T02:26:34;-5.10;99.90
32749;DHT22;19119;52.474;13.710;2023-12-04T02:29:06;-5.00;99.90
32749;DHT22;19119;52.474;13.710;2023-12-04T02:31:32;-5.10;99.90
32749;DHT22;19119;52.474;13.710;2023-12-04T02:33:59;-5.10;99.90
32749;DHT22;19119;52.474;13.710;2023-12-04T02:36:26;-5.10;99.90
32749;DHT22;19119;52.474;13.710;2023-12-04T02:38:52;-5.00;99.90
32749;DHT22;19119;52.474;13.710;2023-12-04T02:41:18;-5.10;99.90
32749;DHT22;19119;52.474;13.710;2023-12-04T02:43:43;-5.00;99.90
32749;DHT22;19119;52.474;13.710;2023-12-04T02:46:09;-5.00;99.90
32749;DHT22;19119;52.474;13.710;2023-12-04T02:48:34;-5.10;99.90
32749;DHT22;19119;52.474;13.710;2023-12-04T02:51:00;-5.10;99.90
32749;DHT22;19119;52.474;13.710;2023-12-04T02:53:25;-5.10;99.90
32749;DHT22;19119;52.474;13.710;2023-12-04T02:55:51;-5.10;99.90
32749;DHT22;19119;52.474;13.710;2023-12-04T02:58:16;-5.10;99.90
32749;DHT22;19119;52.474;13.710;2023-12-04T03:00:42;-5.10;99.90
32749;DHT22;19119;52.474;13.710;2023-12-04T03:03:07;-5.10;99.90
32749;DHT22;19119;52.474;13.710;2023-12-04T03:05:32;-5.00;99.90
32749;DHT22;19119;52.474;13.710;2023-12-04T03:07:58;-5.00;99.90
32749;DHT22;19119;52.474;13.710;2023-12-04T03:10:23;-5.00;99.90
32749;DHT22;19119;52.474;13.710;2023-12-04T03:12:49;-5.00;99.90
32749;DHT22;19119;52.474;13.710;2023-12-04T03:15:14;-4.90;99.90
32749;DHT22;19119;52.474;13.710;2023-12-04T03:17:40;-4.90;99.90
32749;DHT22;19119;52.474;13.710;2023-12-04T03:20:05;-4.90;99.90
32749;DHT22;19119;52.474;13.710;2023-12-04T03:22:34;-4.90;99.90
32749;DHT22;19119;52.474;13.710;2023-12-04T03:24:59;-4.90;99.90
32749;DHT22;19119;52.474;13.710;2023-12-04T03:27:25;-4.90;99.90
32749;DHT22;19119;52.474;13.710;2023-12-04T03:29:50;-4.90;99.90
32749;DHT22;19119;52.474;13.710;2023-12-04T03:32:16;-4.90;99.90
32749;DHT22;19119;52.474;13.710;2023-12-04T03:34:41;-4.90;99.90
32749;DHT22;19119;52.474;13.710;2023-12-04T03:37:06;-4.90;99.90
32749;DHT22;19119;52.474;13.710;2023-12-04T03:39:32;-4.90;99.90
32749;DHT22;19119;52.474;13.710;2023-12-04T03:41:57;-4.90;99.90
32749;DHT22;19119;52.474;13.710;2023-12-04T03:44:23;-4.90;99.90
32749;DHT22;19119;52.474;13.710;2023-12-04T03:46:48;-4.90;99.90
32749;DHT22;19119;52.474;13.710;2023-12-04T03:49:14;-4.90;99.90
32749;DHT22;19119;52.474;13.710;2023-12-04T03:51:39;-4.90;99.90
32749;DHT22;19119;52.474;13.710;2023-12-04T03:54:04;-4.90;99.90
32749;DHT22;19119;52.474;13.710;2023-12-04T03:56:30;-4.90;99.90
32749;DHT22;19119;52.474;13.710;2023-12-04T03:58:55;-4.80;99.90
32749;DHT22;19119;52.474;13.710;2023-12-04T04:01:21;-4.90;99.90
32749;DHT22;19119;52.474;13.710;2023-12-04T04:03:46;-4.90;99.90
32749;DHT22;19119;52.474;13.710;2023-12-04T04:06:11;-4.90;99.90
32749;DHT22;19119;52.474;13.710;2023-12-04T04:08:37;-5.00;99.90
32749;DHT22;19119;52.474;13.710;2023-12-04T04:11:02;-5.00;99.90
32749;DHT22;19119;52.474;13.710;2023-12-04T04:13:28;-4.90;99.90
32749;DHT22;19119;52.474;13.710;2023-12-04T04:15:53;-4.90;99.90
32749;DHT22;19119;52.474;13.710;2023-12-04T04:18:19;-4.90;99.90
32749;DHT22;19119;52.474;13.710;2023-12-04T04:20:44;-5.00;99.90
32749;DHT22;19119;52.474;13.710;2023-12-04T04:23:10;-5.00;99.90
32749;DHT22;19119;52.474;13.710;2023-12-04T04:25:35;-5.00;99.90
32749;DHT22;19119;52.474;13.710;2023-12-04T04:28:01;-4.90;99.90
32749;DHT22;19119;52.474;13.710;2023-12-04T04:30:26;-4.90;99.90
32749;DHT22;19119;52.474;13.710;2023-12-04T04:32:52;-5.00;99.90
32749;DHT22;19119;52.474;13.710;2023-12-04T04:35:17;-4.90;99.90
32749;DHT22;19119;52.474;13.710;2023-12-04T04:37:43;-4.80;99.90
32749;DHT22;19119;52.474;13.710;2023-12-04T04:40:08;-4.80;99.90
32749;DHT22;19119;52.474;13.710;2023-12-04T04:42:33;-4.80;99.90
32749;DHT22;19119;52.474;13.710;2023-12-04T04:44:59;-4.80;99.90
32749;DHT22;19119;52.474;13.710;2023-12-04T04:47:24;-4.80;99.90
32749;DHT22;19119;52.474;13.710;2023-12-04T04:49:50;-4.80;99.90
32749;DHT22;19119;52.474;13.710;2023-12-04T04:52:15;-4.80;99.90
32749;DHT22;19119;52.474;13.710;2023-12-04T04:54:41;-4.80;99.90
32749;DHT22;19119;52.474;13.710;2023-12-04T04:57:06;-4.90;99.90
32749;DHT22;19119;52.474;13.710;2023-12-04T04:59:31;-4.90;99.90
32749;DHT22;19119;52.474;13.710;2023-12-04T05:01:57;-4.90;99.90
32749;DHT22;19119;52.474;13.710;2023-12-04T05:04:22;-4.90;99.90
32749;DHT22;19119;52.474;13.710;2023-12-04T05:06:48;-4.80;99.90
32749;DHT22;19119;52.474;13.710;2023-12-04T05:09:13;-4.90;99.90
32749;DHT22;19119;52.474;13.710;2023-12-04T05:11:39;-4.80;99.90
32749;DHT22;19119;52.474;13.710;2023-12-04T05:14:04;-4.80;99.90
32749;DHT22;19119;52.474;13.710;2023-12-04T05:16:30;-4.70;99.90
32749;DHT22;19119;52.474;13.710;2023-12-04T05:18:55;-4.70;99.90
32749;DHT22;19119;52.474;13.710;2023-12-04T05:21:20;-4.70;99.90
32749;DHT22;19119;52.474;13.710;2023-12-04T05:23:46;-4.70;99.90
32749;DHT22;19119;52.474;13.710;2023-12-04T05:26:11;-4.70;99.90
32749;DHT22;19119;52.474;13.710;2023-12-04T05:28:37;-4.70;99.90
32749;DHT22;19119;52.474;13.710;2023-12-04T05:31:02;-4.70;99.90
32749;DHT22;19119;52.474;13.710;2023-12-04T05:33:28;-4.70;99.90
32749;DHT22;19119;52.474;13.710;2023-12-04T05:35:53;-4.70;99.90
32749;DHT22;19119;52.474;13.710;2023-12-04T05:38:19;-4.70;99.90
32749;DHT22;19119;52.474;13.710;2023-12-04T05:40:44;-4.70;99.90
32749;DHT22;19119;52.474;13.710;2023-12-04T05:43:10;-4.70;99.90
32749;DHT22;19119;52.474;13.710;2023-12-04T05:45:35;-4.80;99.90
32749;DHT22;19119;52.474;13.710;2023-12-04T05:48:01;-4.80;99.90
32749;DHT22;19119;52.474;13.710;2023-12-04T05:50:26;-4.70;99.90
32749;DHT22;19119;52.474;13.710;2023-12-04T05:52:52;-4.80;99.90
32749;DHT22;19119;52.474;13.710;2023-12-04T05:55:17;-4.80;99.90
32749;DHT22;19119;52.474;13.710;2023-12-04T05:57:46;-4.80;99.90
32749;DHT22;19119;52.474;13.710;2023-12-04T06:00:11;-4.90;99.90
32749;DHT22;19119;52.474;13.710;2023-12-04T06:02:38;-4.80;99.90
32749;DHT22;19119;52.474;13.710;2023-12-04T06:05:04;-4.80;99.90
32749;DHT22;19119;52.474;13.710;2023-12-04T06:07:29;-4.80;99.90
32749;DHT22;19119;52.474;13.710;2023-12-04T06:09:54;-4.80;99.90
32749;DHT22;19119;52.474;13.710;2023-12-04T06:12:20;-4.80;99.90
32749;DHT22;19119;52.474;13.710;2023-12-04T06:14:45;-4.70;99.90
32749;DHT22;19119;52.474;13.710;2023-12-04T06:17:11;-4.80;99.90
32749;DHT22;19119;52.474;13.710;2023-12-04T06:19:36;-4.80;99.90
32749;DHT22;19119;52.474;13.710;2023-12-04T06:22:02;-4.80;99.90
32749;DHT22;19119;52.474;13.710;2023-12-04T06:24:27;-4.70;99.90
32749;DHT22;19119;52.474;13.710;2023-12-04T06:26:53;-4.70;99.90
32749;DHT22;19119;52.474;13.710;2023-12-04T06:29:18;-4.70;99.90
32749;DHT22;19119;52.474;13.710;2023-12-04T06:31:44;-4.60;99.90
32749;DHT22;19119;52.474;13.710;2023-12-04T06:34:10;-4.60;99.90
32749;DHT22;19119;52.474;13.710;2023-12-04T06:36:37;-4.60;99.90
32749;DHT22;19119;52.474;13.710;2023-12-04T06:39:03;-4.60;99.90
32749;DHT22;19119;52.474;13.710;2023-12-04T06:41:29;-4.60;99.90
32749;DHT22;19119;52.474;13.710;2023-12-04T06:43:55;-4.50;99.90
32749;DHT22;19119;52.474;13.710;2023-12-04T06:46:21;-4.50;99.90
32749;DHT22;19119;52.474;13.710;2023-12-04T06:48:48;-4.40;99.90
32749;DHT22;19119;52.474;13.710;2023-12-04T06:51:16;-4.40;99.90
32749;DHT22;19119;52.474;13.710;2023-12-04T06:53:42;-4.30;99.90
32749;DHT22;19119;52.474;13.710;2023-12-04T06:56:08;-4.30;99.90
32749;DHT22;19119;52.474;13.710;2023-12-04T06:58:33;-4.30;99.90
32749;DHT22;19119;52.474;13.710;2023-12-04T07:00:59;-4.20;99.90
32749;DHT22;19119;52.474;13.710;2023-12-04T07:03:24;-4.20;99.90
32749;DHT22;19119;52.474;13.710;2023-12-04T07:05:50;-4.20;99.90
32749;DHT22;19119;52.474;13.710;2023-12-04T07:08:15;-4.10;99.90
32749;DHT22;19119;52.474;13.710;2023-12-04T07:10:41;-4.10;99.90
32749;DHT22;19119;52.474;13.710;2023-12-04T07:13:06;-4.10;99.90
32749;DHT22;19119;52.474;13.710;2023-12-04T07:15:32;-4.00;99.90
32749;DHT22;19119;52.474;13.710;2023-12-04T07:17:57;-4.00;99.90
32749;DHT22;19119;52.474;13.710;2023-12-04T07:20:22;-3.90;99.90
32749;DHT22;19119;52.474;13.710;2023-12-04T07:22:49;-3.90;99.90
32749;DHT22;19119;52.474;13.710;2023-12-04T07:25:14;-3.80;99.90
32749;DHT22;19119;52.474;13.710;2023-12-04T07:27:41;-3.80;99.90
32749;DHT22;19119;52.474;13.710;2023-12-04T07:30:07;-3.80;99.90
32749;DHT22;19119;52.474;13.710;2023-12-04T07:32:32;-3.70;99.90
32749;DHT22;19119;52.474;13.710;2023-12-04T07:34:58;-3.70;99.90
32749;DHT22;19119;52.474;13.710;2023-12-04T07:37:24;-3.70;99.90
32749;DHT22;19119;52.474;13.710;2023-12-04T07:39:49;-3.60;99.90
32749;DHT22;19119;52.474;13.710;2023-12-04T07:42:15;-3.60;99.90
32749;DHT22;19119;52.474;13.710;2023-12-04T07:44:40;-3.60;99.90
32749;DHT22;19119;52.474;13.710;2023-12-04T07:47:05;-3.60;99.90
32749;DHT22;19119;52.474;13.710;2023-12-04T07:49:31;-3.50;99.90
32749;DHT22;19119;52.474;13.710;2023-12-04T07:51:56;-3.50;99.90
32749;DHT22;19119;52.474;13.710;2023-12-04T07:54:22;-3.40;99.90
32749;DHT22;19119;52.474;13.710;2023-12-04T07:56:51;-3.30;99.90
32749;DHT22;19119;52.474;13.710;2023-12-04T07:59:17;-3.30;99.90
32749;DHT22;19119;52.474;13.710;2023-12-04T08:01:43;-3.30;99.90
32749;DHT22;19119;52.474;13.710;2023-12-04T08:04:10;-3.20;99.90
32749;DHT22;19119;52.474;13.710;2023-12-04T08:06:35;-3.20;99.90
32749;DHT22;19119;52.474;13.710;2023-12-04T08:09:00;-3.20;99.90
32749;DHT22;19119;52.474;13.710;2023-12-04T08:11:26;-3.10;99.90
32749;DHT22;19119;52.474;13.710;2023-12-04T08:13:52;-3.20;99.90
32749;DHT22;19119;52.474;13.710;2023-12-04T08:16:17;-3.10;99.90
32749;DHT22;19119;52.474;13.710;2023-12-04T08:18:42;-3.00;99.90
32749;DHT22;19119;52.474;13.710;2023-12-04T08:21:09;-3.00;99.90
32749;DHT22;19119;52.474;13.710;2023-12-04T08:23:34;-3.00;99.90
32749;DHT22;19119;52.474;13.710;2023-12-04T08:25:59;-2.90;99.90
32749;DHT22;19119;52.474;13.710;2023-12-04T08:28:25;-2.80;99.90
32749;DHT22;19119;52.474;13.710;2023-12-04T08:30:50;-2.90;99.90
32749;DHT22;19119;52.474;13.710;2023-12-04T08:33:16;-2.80;99.90
32749;DHT22;19119;52.474;13.710;2023-12-04T08:35:41;-2.80;99.90
32749;DHT22;19119;52.474;13.710;2023-12-04T08:38:07;-2.70;99.90
32749;DHT22;19119;52.474;13.710;2023-12-04T08:40:32;-2.60;99.90
32749;DHT22;19119;52.474;13.710;2023-12-04T08:42:58;-2.50;99.90
32749;DHT22;19119;52.474;13.710;2023-12-04T08:45:23;-2.40;99.90
32749;DHT22;19119;52.474;13.710;2023-12-04T08:47:49;-2.40;99.90
32749;DHT22;19119;52.474;13.710;2023-12-04T08:50:14;-2.30;99.90
32749;DHT22;19119;52.474;13.710;2023-12-04T08:52:40;-2.20;99.90
32749;DHT22;19119;52.474;13.710;2023-12-04T08:55:07;-2.20;99.90
32749;DHT22;19119;52.474;13.710;2023-12-04T08:57:32;-2.20;99.90
32749;DHT22;19119;52.474;13.710;2023-12-04T08:59:58;-2.10;99.90
32749;DHT22;19119;52.474;13.710;2023-12-04T09:02:23;-2.00;99.90
32749;DHT22;19119;52.474;13.710;2023-12-04T09:04:49;-2.00;99.90
32749;DHT22;19119;52.474;13.710;2023-12-04T09:07:14;-2.00;99.90
32749;DHT22;19119;52.474;13.710;2023-12-04T09:09:40;-2.00;99.90
32749;DHT22;19119;52.474;13.710;2023-12-04T09:12:06;-2.00;99.90
32749;DHT22;19119;52.474;13.710;2023-12-04T09:14:32;-2.00;99.90
32749;DHT22;19119;52.474;13.710;2023-12-04T09:16:58;-2.00;99.90
32749;DHT22;19119;52.474;13.710;2023-12-04T09:19:23;-2.10;99.90
32749;DHT22;19119;52.474;13.710;2023-12-04T09:21:49;-2.10;99.90
32749;DHT22;19119;52.474;13.710;2023-12-04T09:24:14;-2.10;99.90
32749;DHT22;19119;52.474;13.710;2023-12-04T09:26:40;-2.00;99.90
32749;DHT22;19119;52.474;13.710;2023-12-04T09:29:05;-2.10;99.90
32749;DHT22;19119;52.474;13.710;2023-12-04T09:31:30;-2.00;99.90
32749;DHT22;19119;52.474;13.710;2023-12-04T09:33:56;-1.90;99.90
32749;DHT22;19119;52.474;13.710;2023-12-04T09:36:21;-1.80;99.90
32749;DHT22;19119;52.474;13.710;2023-12-04T09:38:47;-1.70;99.90
32749;DHT22;19119;52.474;13.710;2023-12-04T09:41:12;-1.70;99.90
32749;DHT22;19119;52.474;13.710;2023-12-04T09:43:38;-1.70;99.90
32749;DHT22;19119;52.474;13.710;2023-12-04T09:46:04;-1.60;99.90
32749;DHT22;19119;52.474;13.710;2023-12-04T09:48:29;-1.60;99.90
32749;DHT22;19119;52.474;13.710;2023-12-04T09:50:57;-1.60;99.90
32749;DHT22;19119;52.474;13.710;2023-12-04T09:53:22;-1.60;99.90
32749;DHT22;19119;52.474;13.710;2023-12-04T09:55:51;-1.50;99.90
32749;DHT22;19119;52.474;13.710;2023-12-04T09:58:18;-1.50;99.90
32749;DHT22;19119;52.474;13.710;2023-12-04T10:00:44;-1.40;99.90
32749;DHT22;19119;52.474;13.710;2023-12-04T10:03:10;-1.40;99.90
32749;DHT22;19119;52.474;13.710;2023-12-04T10:05:35;-1.30;99.90
32749;DHT22;19119;52.474;13.710;2023-12-04T10:08:01;-1.20;99.90
32749;DHT22;19119;52.474;13.710;2023-12-04T10:10:26;-1.20;99.90
32749;DHT22;19119;52.474;13.710;2023-12-04T10:12:51;-1.20;99.90
32749;DHT22;19119;52.474;13.710;2023-12-04T10:15:17;-1.10;99.90
32749;DHT22;19119;52.474;13.710;2023-12-04T10:17:42;-1.00;99.90
32749;DHT22;19119;52.474;13.710;2023-12-04T10:22:56;-0.80;99.90
32749;DHT22;19119;52.474;13.710;2023-12-04T10:25:23;-0.80;99.90
32749;DHT22;19119;52.474;13.710;2023-12-04T10:27:50;-0.70;99.90
32749;DHT22;19119;52.474;13.710;2023-12-04T10:30:28;-0.70;99.90
32749;DHT22;19119;52.474;13.710;2023-12-04T10:32:55;-0.70;99.90
32749;DHT22;19119;52.474;13.710;2023-12-04T10:35:21;-0.70;99.90
32749;DHT22;19119;52.474;13.710;2023-12-04T10:37:48;-0.70;99.90
32749;DHT22;19119;52.474;13.710;2023-12-04T10:40:22;-0.70;99.90
32749;DHT22;19119;52.474;13.710;2023-12-04T10:42:47;-0.60;99.90
32749;DHT22;19119;52.474;13.710;2023-12-04T10:45:13;-0.60;99.90
32749;DHT22;19119;52.474;13.710;2023-12-04T10:47:38;-0.50;99.90
32749;DHT22;19119;52.474;13.710;2023-12-04T10:50:04;-0.40;99.90
32749;DHT22;19119;52.474;13.710;2023-12-04T10:52:30;-0.40;99.90
32749;DHT22;19119;52.474;13.710;2023-12-04T10:54:56;-0.30;99.90
32749;DHT22;19119;52.474;13.710;2023-12-04T10:57:26;-0.30;99.90
32749;DHT22;19119;52.474;13.710;2023-12-04T10:59:57;-0.20;99.90
32749;DHT22;19119;52.474;13.710;2023-12-04T11:02:25;-0.20;99.90
32749;DHT22;19119;52.474;13.710;2023-12-04T11:04:53;-0.20;99.90
32749;DHT22;19119;52.474;13.710;2023-12-04T11:07:20;-0.20;99.90
32749;DHT22;19119;52.474;13.710;2023-12-04T11:09:46;-0.30;99.90
32749;DHT22;19119;52.474;13.710;2023-12-04T11:12:14;-0.20;99.90
32749;DHT22;19119;52.474;13.710;2023-12-04T11:14:43;-0.20;99.90
32749;DHT22;19119;52.474;13.710;2023-12-04T11:17:10;-0.20;99.90
32749;DHT22;19119;52.474;13.710;2023-12-04T11:22:08;-0.10;99.90
32749;DHT22;19119;52.474;13.710;2023-12-04T11:24:35;-0.10;99.90
32749;DHT22;19119;52.474;13.710;2023-12-04T11:27:00;-0.10;99.90
32749;DHT22;19119;52.474;13.710;2023-12-04T11:29:26;-0.10;99.90
32749;DHT22;19119;52.474;13.710;2023-12-04T11:31:52;-0.20;99.90
32749;DHT22;19119;52.474;13.710;2023-12-04T11:34:18;-0.10;99.90
32749;DHT22;19119;52.474;13.710;2023-12-04T11:36:43;-0.10;99.90
32749;DHT22;19119;52.474;13.710;2023-12-04T11:39:10;-0.20;99.90
32749;DHT22;19119;52.474;13.710;2023-12-04T11:41:36;-0.10;99.90
32749;DHT22;19119;52.474;13.710;2023-12-04T11:44:03;0.00;99.90
32749;DHT22;19119;52.474;13.710;2023-12-04T11:46:29;-0.10;99.90
32749;DHT22;19119;52.474;13.710;2023-12-04T11:48:56;-0.10;99.90
32749;DHT22;19119;52.474;13.710;2023-12-04T11:54:15;0.00;99.90
32749;DHT22;19119;52.474;13.710;2023-12-04T11:56:47;0.10;99.90
32749;DHT22;19119;52.474;13.710;2023-12-04T11:59:21;0.20;99.90
32749;DHT22;19119;52.474;13.710;2023-12-04T12:01:48;0.20;99.90
32749;DHT22;19119;52.474;13.710;2023-12-04T12:04:15;0.40;99.90
32749;DHT22;19119;52.474;13.710;2023-12-04T12:06:42;0.30;99.90
32749;DHT22;19119;52.474;13.710;2023-12-04T12:09:07;0.40;99.90
32749;DHT22;19119;52.474;13.710;2023-12-04T12:11:33;0.40;99.90
32749;DHT22;19119;52.474;13.710;2023-12-04T12:13:59;0.40;99.90
32749;DHT22;19119;52.474;13.710;2023-12-04T12:16:24;0.50;99.90
32749;DHT22;19119;52.474;13.710;2023-12-04T12:18:51;0.50;99.90
32749;DHT22;19119;52.474;13.710;2023-12-04T12:21:16;0.50;99.90
32749;DHT22;19119;52.474;13.710;2023-12-04T12:23:42;0.50;99.90
32749;DHT22;19119;52.474;13.710;2023-12-04T12:26:08;0.40;99.90
32749;DHT22;19119;52.474;13.710;2023-12-04T12:28:37;0.50;99.90
32749;DHT22;19119;52.474;13.710;2023-12-04T12:31:02;0.50;99.90
32749;DHT22;19119;52.474;13.710;2023-12-04T12:33:28;0.60;99.90
32749;DHT22;19119;52.474;13.710;2023-12-04T12:35:55;0.60;99.90
32749;DHT22;19119;52.474;13.710;2023-12-04T12:38:20;0.60;99.90
32749;DHT22;19119;52.474;13.710;2023-12-04T12:40:46;0.50;99.90
32749;DHT22;19119;52.474;13.710;2023-12-04T12:43:11;0.40;99.90
32749;DHT22;19119;52.474;13.710;2023-12-04T12:45:40;0.60;99.90
32749;DHT22;19119;52.474;13.710;2023-12-04T12:48:05;0.50;99.90
32749;DHT22;19119;52.474;13.710;2023-12-04T12:50:31;0.60;99.90
32749;DHT22;19119;52.474;13.710;2023-12-04T12:52:57;0.70;99.90
32749;DHT22;19119;52.474;13.710;2023-12-04T12:55:23;0.60;99.90
32749;DHT22;19119;52.474;13.710;2023-12-04T12:57:49;0.50;99.90
32749;DHT22;19119;52.474;13.710;2023-12-04T13:00:15;0.40;99.90
32749;DHT22;19119;52.474;13.710;2023-12-04T13:02:40;0.40;99.90
32749;DHT22;19119;52.474;13.710;2023-12-04T13:05:06;0.40;99.90
32749;DHT22;19119;52.474;13.710;2023-12-04T13:07:32;0.40;99.90
32749;DHT22;19119;52.474;13.710;2023-12-04T13:09:58;0.50;99.90
32749;DHT22;19119;52.474;13.710;2023-12-04T13:12:23;0.50;99.90
32749;DHT22;19119;52.474;13.710;2023-12-04T13:14:49;0.50;99.90
32749;DHT22;19119;52.474;13.710;2023-12-04T13:17:14;0.50;99.90
32749;DHT22;19119;52.474;13.710;2023-12-04T13:19:40;0.50;99.90
32749;DHT22;19119;52.474;13.710;2023-12-04T13:22:05;0.40;99.90
32749;DHT22;19119;52.474;13.710;2023-12-04T13:24:32;0.20;99.90
32749;DHT22;19119;52.474;13.710;2023-12-04T13:26:57;0.20;99.90
32749;DHT22;19119;52.474;13.710;2023-12-04T13:29:23;0.10;99.90
32749;DHT22;19119;52.474;13.710;2023-12-04T13:31:49;0.10;99.90
32749;DHT22;19119;52.474;13.710;2023-12-04T13:34:15;0.00;99.90
32749;DHT22;19119;52.474;13.710;2023-12-04T13:36:41;0.10;99.90
32749;DHT22;19119;52.474;13.710;2023-12-04T13:39:06;0.10;99.90
32749;DHT22;19119;52.474;13.710;2023-12-04T13:41:47;0.10;99.90
32749;DHT22;19119;52.474;13.710;2023-12-04T13:44:36;0.20;99.90
32749;DHT22;19119;52.474;13.710;2023-12-04T13:47:02;0.20;99.90
32749;DHT22;19119;52.474;13.710;2023-12-04T13:49:27;0.10;99.90
32749;DHT22;19119;52.474;13.710;2023-12-04T13:51:53;0.10;99.90
32749;DHT22;19119;52.474;13.710;2023-12-04T13:54:19;0.10;99.90
32749;DHT22;19119;52.474;13.710;2023-12-04T13:56:46;0.20;99.90
32749;DHT22;19119;52.474;13.710;2023-12-04T13:59:19;0.10;99.90
32749;DHT22;19119;52.474;13.710;2023-12-04T14:01:45;0.10;99.90
32749;DHT22;19119;52.474;13.710;2023-12-04T14:04:11;0.10;99.90
32749;DHT22;19119;52.474;13.710;2023-12-04T14:06:36;0.10;99.90
32749;DHT22;19119;52.474;13.710;2023-12-04T14:09:02;0.00;99.90
32749;DHT22;19119;52.474;13.710;2023-12-04T14:11:30;0.10;99.90
32749;DHT22;19119;52.474;13.710;2023-12-04T14:13:55;0.10;99.90
32749;DHT22;19119;52.474;13.710;2023-12-04T14:16:21;0.10;99.90
32749;DHT22;19119;52.474;13.710;2023-12-04T14:18:46;0.10;99.90
32749;DHT22;19119;52.474;13.710;2023-12-04T14:21:12;0.10;99.90
32749;DHT22;19119;52.474;13.710;2023-12-04T14:23:37;0.10;99.90
32749;DHT22;19119;52.474;13.710;2023-12-04T14:26:03;0.00;99.90
32749;DHT22;19119;52.474;13.710;2023-12-04T14:28:28;0.10;99.90
32749;DHT22;19119;52.474;13.710;2023-12-04T14:30:54;0.00;99.90
32749;DHT22;19119;52.474;13.710;2023-12-04T14:33:19;0.00;99.90
32749;DHT22;19119;52.474;13.710;2023-12-04T14:35:45;0.00;99.90
32749;DHT22;19119;52.474;13.710;2023-12-04T14:38:10;-0.10;99.90
32749;DHT22;19119;52.474;13.710;2023-12-04T14:40:35;-0.10;99.90
32749;DHT22;19119;52.474;13.710;2023-12-04T14:43:01;-0.10;99.90
32749;DHT22;19119;52.474;13.710;2023-12-04T14:45:26;-0.10;99.90
32749;DHT22;19119;52.474;13.710;2023-12-04T14:47:52;-0.10;99.90
32749;DHT22;19119;52.474;13.710;2023-12-04T14:50:21;-0.10;99.90
32749;DHT22;19119;52.474;13.710;2023-12-04T14:52:46;-0.10;99.90
32749;DHT22;19119;52.474;13.710;2023-12-04T14:55:16;-0.10;99.90
32749;DHT22;19119;52.474;13.710;2023-12-04T14:57:53;-0.10;99.90
32749;DHT22;19119;52.474;13.710;2023-12-04T15:00:37;-0.10;99.90
32749;DHT22;19119;52.474;13.710;2023-12-04T15:03:21;-0.10;99.90
32749;DHT22;19119;52.474;13.710;2023-12-04T15:06:07;-0.10;99.90
32749;DHT22;19119;52.474;13.710;2023-12-04T15:08:38;0.00;99.90
32749;DHT22;19119;52.474;13.710;2023-12-04T15:11:03;-0.10;99.90
32749;DHT22;19119;52.474;13.710;2023-12-04T15:13:29;0.00;99.90
32749;DHT22;19119;52.474;13.710;2023-12-04T15:16:13;-0.10;99.90
32749;DHT22;19119;52.474;13.710;2023-12-04T15:18:39;-0.10;99.90
32749;DHT22;19119;52.474;13.710;2023-12-04T15:21:23;-0.10;99.90